sensor_id;sensor_type;location;lat;lon;timestamp;P1;durP1;ratioP1;P2;durP2;ratioP2
10845;SDS011;5476;51.540;7.186;2022-11-15T00:01:27;11.27;;;7.77;;
10845;SDS011;5476;51.540;7.186;2022-11-15T00:03:55;10.47;;;8.13;;
10845;SDS011;5476;51.540;7.186;2022-11-15T00:06:22;13.43;;;8.27;;
10845;SDS011;5476;51.540;7.186;2022-11-15T00:08:49;10.90;;;7.73;;
10845;SDS011;5476;51.540;7.186;2022-11-15T00:11:16;11.03;;;8.33;;
10845;SDS011;5476;51.540;7.186;2022-11-15T00:13:45;9.47;;;7.77;;
10845;SDS011;5476;51.540;7.186;2022-11-15T00:16:12;9.23;;;7.47;;
10845;SDS011;5476;51.540;7.186;2022-11-15T00:18:39;10.43;;;7.57;;
10845;SDS011;5476;51.540;7.186;2022-11-15T00:21:07;9.13;;;7.30;;
10845;SDS011;5476;51.540;7.186;2022-11-15T00:23:36;11.33;;;7.70;;
10845;SDS011;5476;51.540;7.186;2022-11-15T00:26:03;10.73;;;7.63;;
10845;SDS011;5476;51.540;7.186;2022-11-15T00:28:31;9.73;;;8.23;;
10845;SDS011;5476;51.540;7.186;2022-11-15T00:31:02;9.57;;;6.93;;
10845;SDS011;5476;51.540;7.186;2022-11-15T00:33:30;9.83;;;7.63;;
10845;SDS011;5476;51.540;7.186;2022-11-15T00:36:00;12.37;;;7.40;;
10845;SDS011;5476;51.540;7.186;2022-11-15T00:38:32;9.70;;;6.93;;
10845;SDS011;5476;51.540;7.186;2022-11-15T00:41:00;9.97;;;7.60;;
10845;SDS011;5476;51.540;7.186;2022-11-15T00:43:27;9.00;;;7.30;;
10845;SDS011;5476;51.540;7.186;2022-11-15T00:45:54;12.57;;;7.67;;
10845;SDS011;5476;51.540;7.186;2022-11-15T00:48:23;8.83;;;7.20;;
10845;SDS011;5476;51.540;7.186;2022-11-15T00:50:50;9.93;;;6.73;;
10845;SDS011;5476;51.540;7.186;2022-11-15T00:53:17;8.93;;;7.13;;
10845;SDS011;5476;51.540;7.186;2022-11-15T00:55:45;9.80;;;7.13;;
10845;SDS011;5476;51.540;7.186;2022-11-15T00:58:12;8.97;;;7.30;;
10845;SDS011;5476;51.540;7.186;2022-11-15T01:00:40;11.43;;;7.20;;
10845;SDS011;5476;51.540;7.186;2022-11-15T01:03:07;10.27;;;7.33;;
10845;SDS011;5476;51.540;7.186;2022-11-15T01:05:37;9.50;;;7.07;;
10845;SDS011;5476;51.540;7.186;2022-11-15T01:08:05;9.77;;;7.03;;
10845;SDS011;5476;51.540;7.186;2022-11-15T01:10:33;10.03;;;7.37;;
10845;SDS011;5476;51.540;7.186;2022-11-15T01:13:00;9.47;;;6.80;;
10845;SDS011;5476;51.540;7.186;2022-11-15T01:15:27;11.27;;;6.90;;
10845;SDS011;5476;51.540;7.186;2022-11-15T01:17:54;8.73;;;6.77;;
10845;SDS011;5476;51.540;7.186;2022-11-15T01:20:21;11.20;;;6.70;;
10845;SDS011;5476;51.540;7.186;2022-11-15T01:22:50;8.93;;;6.60;;
10845;SDS011;5476;51.540;7.186;2022-11-15T01:25:17;11.03;;;6.57;;
10845;SDS011;5476;51.540;7.186;2022-11-15T01:27:44;8.70;;;6.70;;
10845;SDS011;5476;51.540;7.186;2022-11-15T01:30:12;8.23;;;5.83;;
10845;SDS011;5476;51.540;7.186;2022-11-15T01:32:39;11.03;;;6.87;;
10845;SDS011;5476;51.540;7.186;2022-11-15T01:35:07;11.43;;;6.33;;
10845;SDS011;5476;51.540;7.186;2022-11-15T01:37:34;8.10;;;5.90;;
10845;SDS011;5476;51.540;7.186;2022-11-15T01:40:03;8.87;;;6.27;;
10845;SDS011;5476;51.540;7.186;2022-11-15T01:42:30;8.73;;;5.87;;
10845;SDS011;5476;51.540;7.186;2022-11-15T01:44:57;8.63;;;6.00;;
10845;SDS011;5476;51.540;7.186;2022-11-15T01:47:25;11.00;;;6.50;;
10845;SDS011;5476;51.540;7.186;2022-11-15T01:49:55;8.90;;;5.90;;
10845;SDS011;5476;51.540;7.186;2022-11-15T01:52:25;7.83;;;5.70;;
10845;SDS011;5476;51.540;7.186;2022-11-15T01:54:56;8.00;;;5.67;;
10845;SDS011;5476;51.540;7.186;2022-11-15T01:57:29;10.20;;;6.30;;
10845;SDS011;5476;51.540;7.186;2022-11-15T01:59:56;7.77;;;5.97;;
10845;SDS011;5476;51.540;7.186;2022-11-15T02:02:24;8.77;;;6.13;;
10845;SDS011;5476;51.540;7.186;2022-11-15T02:04:51;7.67;;;5.63;;
10845;SDS011;5476;51.540;7.186;2022-11-15T02:07:19;7.57;;;5.97;;
10845;SDS011;5476;51.540;7.186;2022-11-15T02:09:47;8.23;;;5.93;;
10845;SDS011;5476;51.540;7.186;2022-11-15T02:12:15;7.87;;;5.50;;
10845;SDS011;5476;51.540;7.186;2022-11-15T02:14:46;6.53;;;5.83;;
10845;SDS011;5476;51.540;7.186;2022-11-15T02:17:31;6.87;;;5.53;;
10845;SDS011;5476;51.540;7.186;2022-11-15T02:20:13;7.97;;;5.67;;
10845;SDS011;5476;51.540;7.186;2022-11-15T02:23:13;6.80;;;5.17;;
10845;SDS011;5476;51.540;7.186;2022-11-15T02:26:06;6.40;;;5.23;;
10845;SDS011;5476;51.540;7.186;2022-11-15T02:28:49;6.93;;;5.43;;
10845;SDS011;5476;51.540;7.186;2022-11-15T02:31:27;6.77;;;5.80;;
10845;SDS011;5476;51.540;7.186;2022-11-15T02:34:00;7.53;;;5.40;;
10845;SDS011;5476;51.540;7.186;2022-11-15T02:36:34;8.23;;;5.70;;
10845;SDS011;5476;51.540;7.186;2022-11-15T02:39:08;9.57;;;6.07;;
10845;SDS011;5476;51.540;7.186;2022-11-15T02:41:42;8.83;;;5.40;;
10845;SDS011;5476;51.540;7.186;2022-11-15T02:44:13;7.40;;;5.53;;
10845;SDS011;5476;51.540;7.186;2022-11-15T02:46:48;7.40;;;5.30;;
10845;SDS011;5476;51.540;7.186;2022-11-15T02:49:36;6.83;;;5.37;;
10845;SDS011;5476;51.540;7.186;2022-11-15T02:52:05;9.77;;;5.93;;
10845;SDS011;5476;51.540;7.186;2022-11-15T02:54:33;7.60;;;5.60;;
10845;SDS011;5476;51.540;7.186;2022-11-15T02:57:01;8.27;;;5.97;;
10845;SDS011;5476;51.540;7.186;2022-11-15T02:59:56;6.43;;;5.40;;
10845;SDS011;5476;51.540;7.186;2022-11-15T03:02:46;7.70;;;5.87;;
10845;SDS011;5476;51.540;7.186;2022-11-15T03:05:24;8.67;;;5.40;;
10845;SDS011;5476;51.540;7.186;2022-11-15T03:08:02;9.03;;;6.10;;
10845;SDS011;5476;51.540;7.186;2022-11-15T03:10:36;8.13;;;5.60;;
10845;SDS011;5476;51.540;7.186;2022-11-15T03:13:10;6.50;;;5.63;;
10845;SDS011;5476;51.540;7.186;2022-11-15T03:15:49;6.67;;;5.67;;
10845;SDS011;5476;51.540;7.186;2022-11-15T03:18:26;8.90;;;6.40;;
10845;SDS011;5476;51.540;7.186;2022-11-15T03:20:58;8.90;;;5.73;;
10845;SDS011;5476;51.540;7.186;2022-11-15T03:23:28;7.90;;;5.93;;
10845;SDS011;5476;51.540;7.186;2022-11-15T03:25:57;9.10;;;6.00;;
10845;SDS011;5476;51.540;7.186;2022-11-15T03:28:27;8.30;;;6.27;;
10845;SDS011;5476;51.540;7.186;2022-11-15T03:31:00;8.23;;;6.57;;
10845;SDS011;5476;51.540;7.186;2022-11-15T03:33:53;8.10;;;6.03;;
10845;SDS011;5476;51.540;7.186;2022-11-15T03:36:23;8.43;;;6.40;;
10845;SDS011;5476;51.540;7.186;2022-11-15T03:38:52;8.47;;;5.97;;
10845;SDS011;5476;51.540;7.186;2022-11-15T03:41:23;7.37;;;5.70;;
10845;SDS011;5476;51.540;7.186;2022-11-15T03:43:56;10.47;;;6.40;;
10845;SDS011;5476;51.540;7.186;2022-11-15T03:46:31;7.03;;;5.90;;
10845;SDS011;5476;51.540;7.186;2022-11-15T03:49:04;8.67;;;6.53;;
10845;SDS011;5476;51.540;7.186;2022-11-15T03:51:34;9.70;;;5.93;;
10845;SDS011;5476;51.540;7.186;2022-11-15T03:54:02;8.33;;;6.40;;
10845;SDS011;5476;51.540;7.186;2022-11-15T03:56:29;7.13;;;6.20;;
10845;SDS011;5476;51.540;7.186;2022-11-15T03:58:57;9.17;;;6.47;;
10845;SDS011;5476;51.540;7.186;2022-11-15T04:01:24;8.40;;;6.77;;
10845;SDS011;5476;51.540;7.186;2022-11-15T04:03:51;8.87;;;6.70;;
10845;SDS011;5476;51.540;7.186;2022-11-15T04:06:20;7.97;;;5.90;;
10845;SDS011;5476;51.540;7.186;2022-11-15T04:08:47;8.30;;;6.07;;
10845;SDS011;5476;51.540;7.186;2022-11-15T04:11:14;8.80;;;6.10;;
10845;SDS011;5476;51.540;7.186;2022-11-15T04:13:41;8.17;;;6.50;;
10845;SDS011;5476;51.540;7.186;2022-11-15T04:16:08;7.83;;;6.20;;
10845;SDS011;5476;51.540;7.186;2022-11-15T04:18:36;6.90;;;5.67;;
10845;SDS011;5476;51.540;7.186;2022-11-15T04:21:03;6.77;;;5.63;;
10845;SDS011;5476;51.540;7.186;2022-11-15T04:23:49;8.43;;;5.60;;
10845;SDS011;5476;51.540;7.186;2022-11-15T04:26:48;10.37;;;6.17;;
10845;SDS011;5476;51.540;7.186;2022-11-15T04:29:16;6.87;;;5.27;;
10845;SDS011;5476;51.540;7.186;2022-11-15T04:32:01;7.43;;;5.50;;
10845;SDS011;5476;51.540;7.186;2022-11-15T04:34:28;8.37;;;5.87;;
10845;SDS011;5476;51.540;7.186;2022-11-15T04:36:55;6.33;;;5.50;;
10845;SDS011;5476;51.540;7.186;2022-11-15T04:39:39;6.37;;;5.17;;
10845;SDS011;5476;51.540;7.186;2022-11-15T04:42:07;6.93;;;5.33;;
10845;SDS011;5476;51.540;7.186;2022-11-15T04:44:34;6.83;;;5.20;;
10845;SDS011;5476;51.540;7.186;2022-11-15T04:47:02;5.97;;;5.13;;
10845;SDS011;5476;51.540;7.186;2022-11-15T04:49:29;9.33;;;5.63;;
10845;SDS011;5476;51.540;7.186;2022-11-15T04:51:56;7.47;;;5.50;;
10845;SDS011;5476;51.540;7.186;2022-11-15T04:54:23;9.13;;;5.60;;
10845;SDS011;5476;51.540;7.186;2022-11-15T04:56:52;7.17;;;5.53;;
10845;SDS011;5476;51.540;7.186;2022-11-15T04:59:19;9.43;;;5.53;;
10845;SDS011;5476;51.540;7.186;2022-11-15T05:01:46;8.40;;;5.97;;
10845;SDS011;5476;51.540;7.186;2022-11-15T05:04:14;7.80;;;5.70;;
10845;SDS011;5476;51.540;7.186;2022-11-15T05:06:47;7.37;;;5.37;;
10845;SDS011;5476;51.540;7.186;2022-11-15T05:09:14;7.73;;;6.10;;
10845;SDS011;5476;51.540;7.186;2022-11-15T05:11:42;8.23;;;5.83;;
10845;SDS011;5476;51.540;7.186;2022-11-15T05:14:10;8.70;;;6.10;;
10845;SDS011;5476;51.540;7.186;2022-11-15T05:16:37;7.07;;;4.90;;
10845;SDS011;5476;51.540;7.186;2022-11-15T05:19:05;6.70;;;5.93;;
10845;SDS011;5476;51.540;7.186;2022-11-15T05:21:32;7.27;;;5.73;;
10845;SDS011;5476;51.540;7.186;2022-11-15T05:24:00;8.33;;;6.07;;
10845;SDS011;5476;51.540;7.186;2022-11-15T05:26:27;7.03;;;5.30;;
10845;SDS011;5476;51.540;7.186;2022-11-15T05:28:55;7.27;;;6.30;;
10845;SDS011;5476;51.540;7.186;2022-11-15T05:31:24;6.50;;;5.73;;
10845;SDS011;5476;51.540;7.186;2022-11-15T05:33:52;7.63;;;5.80;;
10845;SDS011;5476;51.540;7.186;2022-11-15T05:36:22;6.27;;;5.47;;
10845;SDS011;5476;51.540;7.186;2022-11-15T05:38:55;6.53;;;5.47;;
10845;SDS011;5476;51.540;7.186;2022-11-15T05:41:24;10.37;;;5.80;;
10845;SDS011;5476;51.540;7.186;2022-11-15T05:43:53;6.77;;;5.77;;
10845;SDS011;5476;51.540;7.186;2022-11-15T05:46:20;7.57;;;6.23;;
10845;SDS011;5476;51.540;7.186;2022-11-15T05:48:49;8.27;;;6.00;;
10845;SDS011;5476;51.540;7.186;2022-11-15T05:51:18;8.53;;;7.33;;
10845;SDS011;5476;51.540;7.186;2022-11-15T05:53:47;9.17;;;6.63;;
10845;SDS011;5476;51.540;7.186;2022-11-15T05:56:15;10.97;;;6.93;;
10845;SDS011;5476;51.540;7.186;2022-11-15T05:58:42;9.30;;;6.73;;
10845;SDS011;5476;51.540;7.186;2022-11-15T06:01:09;9.73;;;6.73;;
10845;SDS011;5476;51.540;7.186;2022-11-15T06:03:37;9.83;;;6.63;;
10845;SDS011;5476;51.540;7.186;2022-11-15T06:06:05;7.70;;;6.63;;
10845;SDS011;5476;51.540;7.186;2022-11-15T06:08:33;7.57;;;6.77;;
10845;SDS011;5476;51.540;7.186;2022-11-15T06:11:04;7.57;;;6.77;;
10845;SDS011;5476;51.540;7.186;2022-11-15T06:13:31;9.47;;;8.10;;
10845;SDS011;5476;51.540;7.186;2022-11-15T06:15:58;9.50;;;7.53;;
10845;SDS011;5476;51.540;7.186;2022-11-15T06:18:25;9.10;;;7.20;;
10845;SDS011;5476;51.540;7.186;2022-11-15T06:20:53;7.40;;;6.70;;
10845;SDS011;5476;51.540;7.186;2022-11-15T06:23:22;9.23;;;6.80;;
10845;SDS011;5476;51.540;7.186;2022-11-15T06:25:51;8.87;;;7.37;;
10845;SDS011;5476;51.540;7.186;2022-11-15T06:28:19;8.87;;;7.10;;
10845;SDS011;5476;51.540;7.186;2022-11-15T06:30:46;8.30;;;7.40;;
10845;SDS011;5476;51.540;7.186;2022-11-15T06:33:13;8.63;;;7.13;;
10845;SDS011;5476;51.540;7.186;2022-11-15T06:35:40;9.43;;;7.13;;
10845;SDS011;5476;51.540;7.186;2022-11-15T06:38:08;7.57;;;6.70;;
10845;SDS011;5476;51.540;7.186;2022-11-15T06:40:38;7.70;;;6.80;;
10845;SDS011;5476;51.540;7.186;2022-11-15T06:43:05;8.93;;;6.47;;
10845;SDS011;5476;51.540;7.186;2022-11-15T06:45:33;6.80;;;6.10;;
10845;SDS011;5476;51.540;7.186;2022-11-15T06:48:00;9.17;;;6.90;;
10845;SDS011;5476;51.540;7.186;2022-11-15T06:50:28;6.50;;;5.83;;
10845;SDS011;5476;51.540;7.186;2022-11-15T06:52:55;6.53;;;5.50;;
10845;SDS011;5476;51.540;7.186;2022-11-15T06:55:22;5.80;;;5.20;;
10845;SDS011;5476;51.540;7.186;2022-11-15T06:57:51;5.93;;;4.90;;
10845;SDS011;5476;51.540;7.186;2022-11-15T07:00:19;6.60;;;4.93;;
10845;SDS011;5476;51.540;7.186;2022-11-15T07:02:47;5.77;;;4.43;;
10845;SDS011;5476;51.540;7.186;2022-11-15T07:05:17;4.87;;;4.37;;
10845;SDS011;5476;51.540;7.186;2022-11-15T07:07:50;4.43;;;4.03;;
10845;SDS011;5476;51.540;7.186;2022-11-15T07:10:18;4.80;;;4.13;;
10845;SDS011;5476;51.540;7.186;2022-11-15T07:12:46;4.33;;;3.93;;
10845;SDS011;5476;51.540;7.186;2022-11-15T07:15:16;5.73;;;3.83;;
10845;SDS011;5476;51.540;7.186;2022-11-15T07:17:43;3.93;;;3.47;;
10845;SDS011;5476;51.540;7.186;2022-11-15T07:23:01;4.27;;;3.37;;
10845;SDS011;5476;51.540;7.186;2022-11-15T07:25:58;4.33;;;3.33;;
10845;SDS011;5476;51.540;7.186;2022-11-15T07:31:50;3.97;;;3.50;;
10845;SDS011;5476;51.540;7.186;2022-11-15T07:34:41;4.93;;;3.40;;
10845;SDS011;5476;51.540;7.186;2022-11-15T07:37:33;3.10;;;2.80;;
10845;SDS011;5476;51.540;7.186;2022-11-15T07:40:31;3.47;;;2.80;;
10845;SDS011;5476;51.540;7.186;2022-11-15T07:43:15;3.47;;;2.60;;
10845;SDS011;5476;51.540;7.186;2022-11-15T07:46:07;5.23;;;2.80;;
10845;SDS011;5476;51.540;7.186;2022-11-15T07:49:04;3.40;;;2.70;;
10845;SDS011;5476;51.540;7.186;2022-11-15T07:51:51;3.17;;;2.50;;
10845;SDS011;5476;51.540;7.186;2022-11-15T07:54:41;2.50;;;2.30;;
10845;SDS011;5476;51.540;7.186;2022-11-15T07:57:23;3.93;;;2.53;;
10845;SDS011;5476;51.540;7.186;2022-11-15T07:59:50;2.57;;;2.30;;
10845;SDS011;5476;51.540;7.186;2022-11-15T08:02:17;3.73;;;2.70;;
10845;SDS011;5476;51.540;7.186;2022-11-15T08:04:46;3.10;;;2.50;;
10845;SDS011;5476;51.540;7.186;2022-11-15T08:07:13;2.70;;;2.40;;
10845;SDS011;5476;51.540;7.186;2022-11-15T08:09:40;5.67;;;2.60;;
10845;SDS011;5476;51.540;7.186;2022-11-15T08:12:07;2.60;;;2.30;;
10845;SDS011;5476;51.540;7.186;2022-11-15T08:14:34;2.40;;;2.20;;
10845;SDS011;5476;51.540;7.186;2022-11-15T08:17:02;3.63;;;2.30;;
10845;SDS011;5476;51.540;7.186;2022-11-15T08:19:31;2.50;;;2.10;;
10845;SDS011;5476;51.540;7.186;2022-11-15T08:22:00;2.77;;;2.50;;
10845;SDS011;5476;51.540;7.186;2022-11-15T08:24:27;3.10;;;2.30;;
10845;SDS011;5476;51.540;7.186;2022-11-15T08:26:54;3.00;;;2.40;;
10845;SDS011;5476;51.540;7.186;2022-11-15T08:29:21;3.50;;;2.40;;
10845;SDS011;5476;51.540;7.186;2022-11-15T08:31:49;3.73;;;2.20;;
10845;SDS011;5476;51.540;7.186;2022-11-15T08:34:18;2.33;;;2.00;;
10845;SDS011;5476;51.540;7.186;2022-11-15T08:36:45;2.83;;;1.80;;
10845;SDS011;5476;51.540;7.186;2022-11-15T08:39:14;4.30;;;2.07;;
10845;SDS011;5476;51.540;7.186;2022-11-15T08:41:41;3.03;;;1.90;;
10845;SDS011;5476;51.540;7.186;2022-11-15T08:44:09;2.33;;;1.67;;
10845;SDS011;5476;51.540;7.186;2022-11-15T08:46:36;1.83;;;1.70;;
10845;SDS011;5476;51.540;7.186;2022-11-15T08:49:04;2.67;;;1.70;;
10845;SDS011;5476;51.540;7.186;2022-11-15T08:51:31;2.27;;;1.70;;
10845;SDS011;5476;51.540;7.186;2022-11-15T08:53:58;3.27;;;1.90;;
10845;SDS011;5476;51.540;7.186;2022-11-15T08:56:27;2.43;;;2.00;;
10845;SDS011;5476;51.540;7.186;2022-11-15T08:58:54;2.20;;;1.90;;
10845;SDS011;5476;51.540;7.186;2022-11-15T09:01:21;3.30;;;1.73;;
10845;SDS011;5476;51.540;7.186;2022-11-15T09:03:48;2.40;;;1.90;;
10845;SDS011;5476;51.540;7.186;2022-11-15T09:06:16;2.57;;;1.60;;
10845;SDS011;5476;51.540;7.186;2022-11-15T09:08:43;3.42;;;1.80;;
10845;SDS011;5476;51.540;7.186;2022-11-15T09:11:10;2.00;;;1.77;;
10845;SDS011;5476;51.540;7.186;2022-11-15T09:13:39;1.67;;;1.57;;
10845;SDS011;5476;51.540;7.186;2022-11-15T09:16:06;2.13;;;1.85;;
10845;SDS011;5476;51.540;7.186;2022-11-15T09:18:33;2.10;;;1.65;;
10845;SDS011;5476;51.540;7.186;2022-11-15T09:21:01;4.18;;;1.80;;
10845;SDS011;5476;51.540;7.186;2022-11-15T09:23:28;2.08;;;1.60;;
10845;SDS011;5476;51.540;7.186;2022-11-15T09:25:58;1.60;;;1.50;;
10845;SDS011;5476;51.540;7.186;2022-11-15T09:28:26;2.17;;;1.30;;
10845;SDS011;5476;51.540;7.186;2022-11-15T09:30:57;1.90;;;1.50;;
10845;SDS011;5476;51.540;7.186;2022-11-15T09:33:24;1.92;;;1.40;;
10845;SDS011;5476;51.540;7.186;2022-11-15T09:35:52;3.88;;;1.63;;
10845;SDS011;5476;51.540;7.186;2022-11-15T09:38:19;1.77;;;1.48;;
10845;SDS011;5476;51.540;7.186;2022-11-15T09:40:47;2.10;;;1.50;;
10845;SDS011;5476;51.540;7.186;2022-11-15T09:43:23;2.08;;;1.52;;
10845;SDS011;5476;51.540;7.186;2022-11-15T09:46:01;1.48;;;1.30;;
10845;SDS011;5476;51.540;7.186;2022-11-15T09:48:43;1.30;;;1.20;;
10845;SDS011;5476;51.540;7.186;2022-11-15T09:51:26;1.50;;;1.23;;
10845;SDS011;5476;51.540;7.186;2022-11-15T09:54:01;2.25;;;1.27;;
10845;SDS011;5476;51.540;7.186;2022-11-15T09:56:35;2.80;;;1.20;;
10845;SDS011;5476;51.540;7.186;2022-11-15T09:59:07;2.85;;;1.25;;
10845;SDS011;5476;51.540;7.186;2022-11-15T10:01:47;1.50;;;1.23;;
10845;SDS011;5476;51.540;7.186;2022-11-15T10:04:21;1.58;;;1.38;;
10845;SDS011;5476;51.540;7.186;2022-11-15T10:06:55;2.95;;;1.25;;
10845;SDS011;5476;51.540;7.186;2022-11-15T10:09:30;2.92;;;1.50;;
10845;SDS011;5476;51.540;7.186;2022-11-15T10:12:04;2.10;;;1.40;;
10845;SDS011;5476;51.540;7.186;2022-11-15T10:14:33;1.75;;;1.20;;
10845;SDS011;5476;51.540;7.186;2022-11-15T10:17:06;1.83;;;1.00;;
10845;SDS011;5476;51.540;7.186;2022-11-15T10:19:57;2.15;;;1.08;;
10845;SDS011;5476;51.540;7.186;2022-11-15T10:22:35;1.52;;;1.05;;
10845;SDS011;5476;51.540;7.186;2022-11-15T10:25:21;1.35;;;1.10;;
10845;SDS011;5476;51.540;7.186;2022-11-15T10:27:53;2.72;;;1.33;;
10845;SDS011;5476;51.540;7.186;2022-11-15T10:30:23;1.52;;;1.13;;
10845;SDS011;5476;51.540;7.186;2022-11-15T10:32:57;3.90;;;1.60;;
10845;SDS011;5476;51.540;7.186;2022-11-15T10:35:25;2.33;;;1.10;;
10845;SDS011;5476;51.540;7.186;2022-11-15T10:38:02;1.42;;;1.05;;
10845;SDS011;5476;51.540;7.186;2022-11-15T10:40:32;2.45;;;1.30;;
10845;SDS011;5476;51.540;7.186;2022-11-15T10:43:12;1.00;;;0.90;;
10845;SDS011;5476;51.540;7.186;2022-11-15T10:45:42;1.27;;;1.10;;
10845;SDS011;5476;51.540;7.186;2022-11-15T10:48:24;2.88;;;1.20;;
10845;SDS011;5476;51.540;7.186;2022-11-15T10:50:52;1.50;;;1.20;;
10845;SDS011;5476;51.540;7.186;2022-11-15T10:53:22;2.15;;;1.10;;
10845;SDS011;5476;51.540;7.186;2022-11-15T10:55:53;2.03;;;1.00;;
10845;SDS011;5476;51.540;7.186;2022-11-15T10:58:29;1.55;;;1.00;;
10845;SDS011;5476;51.540;7.186;2022-11-15T11:01:08;2.33;;;1.20;;
10845;SDS011;5476;51.540;7.186;2022-11-15T11:03:38;1.60;;;1.10;;
10845;SDS011;5476;51.540;7.186;2022-11-15T11:06:11;1.83;;;1.30;;
10845;SDS011;5476;51.540;7.186;2022-11-15T11:09:00;2.28;;;1.10;;
10845;SDS011;5476;51.540;7.186;2022-11-15T11:11:44;1.13;;;1.00;;
10845;SDS011;5476;51.540;7.186;2022-11-15T11:14:12;1.92;;;1.20;;
10845;SDS011;5476;51.540;7.186;2022-11-15T11:16:46;1.00;;;0.90;;
10845;SDS011;5476;51.540;7.186;2022-11-15T11:19:21;2.63;;;1.00;;
10845;SDS011;5476;51.540;7.186;2022-11-15T11:22:16;2.05;;;1.05;;
10845;SDS011;5476;51.540;7.186;2022-11-15T11:24:48;1.95;;;1.20;;
10845;SDS011;5476;51.540;7.186;2022-11-15T11:27:26;1.88;;;1.00;;
10845;SDS011;5476;51.540;7.186;2022-11-15T11:30:06;1.50;;;0.90;;
10845;SDS011;5476;51.540;7.186;2022-11-15T11:35:32;1.60;;;1.00;;
10845;SDS011;5476;51.540;7.186;2022-11-15T11:38:10;1.88;;;1.10;;
10845;SDS011;5476;51.540;7.186;2022-11-15T11:40:51;1.15;;;0.90;;
10845;SDS011;5476;51.540;7.186;2022-11-15T11:43:27;2.17;;;1.10;;
10845;SDS011;5476;51.540;7.186;2022-11-15T11:48:59;2.10;;;1.10;;
10845;SDS011;5476;51.540;7.186;2022-11-15T11:51:33;1.85;;;0.93;;
10845;SDS011;5476;51.540;7.186;2022-11-15T11:54:12;1.25;;;0.93;;
10845;SDS011;5476;51.540;7.186;2022-11-15T11:56:45;3.40;;;0.90;;
10845;SDS011;5476;51.540;7.186;2022-11-15T11:59:16;1.02;;;0.85;;
10845;SDS011;5476;51.540;7.186;2022-11-15T12:01:48;1.80;;;0.90;;
10845;SDS011;5476;51.540;7.186;2022-11-15T12:04:18;0.93;;;0.90;;
10845;SDS011;5476;51.540;7.186;2022-11-15T12:06:50;2.70;;;0.93;;
10845;SDS011;5476;51.540;7.186;2022-11-15T12:09:23;1.77;;;1.00;;
10845;SDS011;5476;51.540;7.186;2022-11-15T12:11:58;0.77;;;0.77;;
10845;SDS011;5476;51.540;7.186;2022-11-15T12:14:32;1.25;;;1.00;;
10845;SDS011;5476;51.540;7.186;2022-11-15T12:17:01;1.55;;;0.80;;
10845;SDS011;5476;51.540;7.186;2022-11-15T12:19:29;0.80;;;0.80;;
10845;SDS011;5476;51.540;7.186;2022-11-15T12:21:59;1.88;;;1.00;;
10845;SDS011;5476;51.540;7.186;2022-11-15T12:24:32;1.10;;;1.00;;
10845;SDS011;5476;51.540;7.186;2022-11-15T12:27:05;1.83;;;0.85;;
10845;SDS011;5476;51.540;7.186;2022-11-15T12:29:39;2.70;;;0.88;;
10845;SDS011;5476;51.540;7.186;2022-11-15T12:32:14;1.05;;;0.90;;
10845;SDS011;5476;51.540;7.186;2022-11-15T12:34:57;1.30;;;1.10;;
10845;SDS011;5476;51.540;7.186;2022-11-15T12:40:25;2.20;;;0.90;;
10845;SDS011;5476;51.540;7.186;2022-11-15T12:46:10;1.35;;;0.90;;
10845;SDS011;5476;51.540;7.186;2022-11-15T12:48:45;2.35;;;0.90;;
10845;SDS011;5476;51.540;7.186;2022-11-15T12:51:21;2.35;;;0.95;;
10845;SDS011;5476;51.540;7.186;2022-11-15T12:57:26;1.63;;;1.08;;
10845;SDS011;5476;51.540;7.186;2022-11-15T12:59:56;2.33;;;1.20;;
10845;SDS011;5476;51.540;7.186;2022-11-15T13:02:27;3.05;;;1.10;;
10845;SDS011;5476;51.540;7.186;2022-11-15T13:08:06;2.17;;;1.00;;
10845;SDS011;5476;51.540;7.186;2022-11-15T13:10:34;2.20;;;1.23;;
10845;SDS011;5476;51.540;7.186;2022-11-15T13:13:03;2.88;;;1.15;;
10845;SDS011;5476;51.540;7.186;2022-11-15T13:15:38;2.45;;;1.10;;
10845;SDS011;5476;51.540;7.186;2022-11-15T13:18:28;4.78;;;1.58;;
10845;SDS011;5476;51.540;7.186;2022-11-15T13:21:01;4.65;;;1.52;;
10845;SDS011;5476;51.540;7.186;2022-11-15T13:23:52;2.00;;;1.25;;
10845;SDS011;5476;51.540;7.186;2022-11-15T13:26:20;2.38;;;1.20;;
10845;SDS011;5476;51.540;7.186;2022-11-15T13:28:49;1.33;;;0.88;;
10845;SDS011;5476;51.540;7.186;2022-11-15T13:31:22;1.90;;;0.95;;
10845;SDS011;5476;51.540;7.186;2022-11-15T13:33:51;4.78;;;0.95;;
10845;SDS011;5476;51.540;7.186;2022-11-15T13:36:21;2.00;;;0.90;;
10845;SDS011;5476;51.540;7.186;2022-11-15T13:38:58;1.88;;;1.10;;
10845;SDS011;5476;51.540;7.186;2022-11-15T13:41:27;2.63;;;1.10;;
10845;SDS011;5476;51.540;7.186;2022-11-15T13:43:57;1.77;;;1.00;;
10845;SDS011;5476;51.540;7.186;2022-11-15T13:46:25;2.75;;;0.95;;
10845;SDS011;5476;51.540;7.186;2022-11-15T13:48:54;3.28;;;0.80;;
10845;SDS011;5476;51.540;7.186;2022-11-15T13:51:25;2.72;;;1.20;;
10845;SDS011;5476;51.540;7.186;2022-11-15T13:54:01;2.20;;;1.30;;
10845;SDS011;5476;51.540;7.186;2022-11-15T13:56:33;1.38;;;1.00;;
10845;SDS011;5476;51.540;7.186;2022-11-15T13:59:07;3.28;;;1.20;;
10845;SDS011;5476;51.540;7.186;2022-11-15T14:01:35;2.42;;;1.20;;
10845;SDS011;5476;51.540;7.186;2022-11-15T14:04:03;3.15;;;1.27;;
10845;SDS011;5476;51.540;7.186;2022-11-15T14:06:30;4.13;;;1.20;;
10845;SDS011;5476;51.540;7.186;2022-11-15T14:09:03;3.13;;;1.20;;
10845;SDS011;5476;51.540;7.186;2022-11-15T14:11:49;3.17;;;1.10;;
10845;SDS011;5476;51.540;7.186;2022-11-15T14:14:19;5.65;;;1.70;;
10845;SDS011;5476;51.540;7.186;2022-11-15T14:16:48;2.40;;;1.30;;
10845;SDS011;5476;51.540;7.186;2022-11-15T14:19:39;1.13;;;0.90;;
10845;SDS011;5476;51.540;7.186;2022-11-15T14:22:19;1.00;;;0.90;;
10845;SDS011;5476;51.540;7.186;2022-11-15T14:25:07;2.80;;;1.05;;
10845;SDS011;5476;51.540;7.186;2022-11-15T14:27:41;3.05;;;1.10;;
10845;SDS011;5476;51.540;7.186;2022-11-15T14:30:14;3.03;;;1.20;;
10845;SDS011;5476;51.540;7.186;2022-11-15T14:32:43;3.38;;;1.20;;
10845;SDS011;5476;51.540;7.186;2022-11-15T14:35:14;3.10;;;1.20;;
10845;SDS011;5476;51.540;7.186;2022-11-15T14:37:42;1.55;;;1.10;;
10845;SDS011;5476;51.540;7.186;2022-11-15T14:40:12;2.10;;;1.20;;
10845;SDS011;5476;51.540;7.186;2022-11-15T14:42:39;1.65;;;1.20;;
10845;SDS011;5476;51.540;7.186;2022-11-15T14:45:09;1.35;;;1.15;;
10845;SDS011;5476;51.540;7.186;2022-11-15T14:47:40;2.67;;;1.30;;
10845;SDS011;5476;51.540;7.186;2022-11-15T14:50:10;2.33;;;1.42;;
10845;SDS011;5476;51.540;7.186;2022-11-15T14:52:38;3.00;;;1.20;;
10845;SDS011;5476;51.540;7.186;2022-11-15T14:55:11;3.38;;;1.40;;
10845;SDS011;5476;51.540;7.186;2022-11-15T14:57:44;4.68;;;1.60;;
10845;SDS011;5476;51.540;7.186;2022-11-15T15:00:12;2.60;;;1.95;;
10845;SDS011;5476;51.540;7.186;2022-11-15T15:02:42;4.03;;;1.80;;
10845;SDS011;5476;51.540;7.186;2022-11-15T15:05:13;2.75;;;1.52;;
10845;SDS011;5476;51.540;7.186;2022-11-15T15:07:41;2.42;;;1.55;;
10845;SDS011;5476;51.540;7.186;2022-11-15T15:10:09;1.85;;;1.63;;
10845;SDS011;5476;51.540;7.186;2022-11-15T15:12:36;2.47;;;1.60;;
10845;SDS011;5476;51.540;7.186;2022-11-15T15:15:04;3.70;;;1.90;;
10845;SDS011;5476;51.540;7.186;2022-11-15T15:17:31;2.65;;;1.88;;
10845;SDS011;5476;51.540;7.186;2022-11-15T15:20:00;5.43;;;2.13;;
10845;SDS011;5476;51.540;7.186;2022-11-15T15:22:27;4.20;;;1.77;;
10845;SDS011;5476;51.540;7.186;2022-11-15T15:24:56;4.40;;;2.08;;
10845;SDS011;5476;51.540;7.186;2022-11-15T15:27:23;4.10;;;1.92;;
10845;SDS011;5476;51.540;7.186;2022-11-15T15:29:50;3.05;;;1.90;;
10845;SDS011;5476;51.540;7.186;2022-11-15T15:32:17;4.88;;;1.90;;
10845;SDS011;5476;51.540;7.186;2022-11-15T15:34:45;3.58;;;2.10;;
10845;SDS011;5476;51.540;7.186;2022-11-15T15:37:19;3.05;;;1.88;;
10845;SDS011;5476;51.540;7.186;2022-11-15T15:39:50;4.15;;;2.38;;
10845;SDS011;5476;51.540;7.186;2022-11-15T15:42:18;4.80;;;1.92;;
10845;SDS011;5476;51.540;7.186;2022-11-15T15:44:45;4.55;;;1.95;;
10845;SDS011;5476;51.540;7.186;2022-11-15T15:47:16;2.88;;;2.05;;
10845;SDS011;5476;51.540;7.186;2022-11-15T15:49:45;3.35;;;2.03;;
10845;SDS011;5476;51.540;7.186;2022-11-15T15:52:12;3.17;;;1.83;;